createdAt,value
2022-11-10T00:01:43.684Z,95588.34
2022-11-10T00:04:26.706Z,95581.66
2022-11-10T00:07:09.800Z,95579.41
2022-11-10T00:09:53.508Z,95583.88
2022-11-10T00:12:38.313Z,95576.13
2022-11-10T00:15:38.588Z,95578.19
2022-11-10T00:18:21.567Z,95581.53
2022-11-10T00:21:06.566Z,95578.44
2022-11-10T00:23:49.507Z,95582.28
2022-11-10T00:26:32.597Z,95588.88
2022-11-10T00:29:17.003Z,95592.44
2022-11-10T00:31:59.993Z,95584.59
2022-11-10T00:34:42.989Z,95584.44
2022-11-10T00:37:26.004Z,95584.16
2022-11-10T00:40:10.035Z,95577.66
2022-11-10T00:42:53.024Z,95586.31
2022-11-10T00:45:37.434Z,95572.50
2022-11-10T00:48:20.438Z,95565.09
2022-11-10T00:51:03.490Z,95566.81
2022-11-10T00:53:46.495Z,95568.94
2022-11-10T00:56:29.480Z,95569.75
2022-11-10T00:59:12.521Z,95560.50
2022-11-10T01:01:56.937Z,95567.44
2022-11-10T01:04:39.951Z,95559.16
2022-11-10T01:07:22.904Z,95571.53
2022-11-10T01:10:07.058Z,95560.59
2022-11-10T01:12:50.074Z,95559.81
2022-11-10T01:15:33.058Z,95557.84
2022-11-10T01:18:17.937Z,95561.41
2022-11-10T01:21:01.216Z,95562.56
2022-11-10T01:23:44.409Z,95558.81
2022-11-10T01:26:27.487Z,95561.78
2022-11-10T01:29:10.541Z,95554.28
2022-11-10T01:31:53.529Z,95557.84
2022-11-10T01:34:37.928Z,95554.28
2022-11-10T01:37:20.921Z,95551.06
2022-11-10T01:40:05.254Z,95556.22
2022-11-10T01:42:52.577Z,95557.84
2022-11-10T01:45:47.069Z,95555.88
2022-11-10T01:48:34.382Z,95559.38
2022-11-10T01:51:23.464Z,95565.31
2022-11-10T01:54:09.373Z,95559.91
2022-11-10T01:56:56.217Z,95563.19
2022-11-10T01:59:44.607Z,95558.81
2022-11-10T02:02:31.746Z,95561.88
2022-11-10T02:05:14.896Z,95554.03
2022-11-10T02:07:59.345Z,95554.84
2022-11-10T02:10:42.521Z,95558.31
2022-11-10T02:13:26.353Z,95559.81
2022-11-10T02:16:10.246Z,95559.28
2022-11-10T02:18:53.435Z,95560.06
2022-11-10T02:21:37.977Z,95559.97
2022-11-10T02:24:21.000Z,95567.53
2022-11-10T02:27:04.225Z,95575.09
2022-11-10T02:29:47.213Z,95566.31
2022-11-10T02:32:30.244Z,95571.63
2022-11-10T02:35:13.215Z,95572.59
2022-11-10T02:37:57.546Z,95576.16
2022-11-10T02:40:40.764Z,95569.38
2022-11-10T02:43:24.342Z,95578.47
2022-11-10T02:46:08.087Z,95573.75
2022-11-10T02:48:51.414Z,95582.91
2022-11-10T02:51:34.590Z,95582.91
2022-11-10T02:54:18.970Z,95583.72
2022-11-10T02:57:02.834Z,95581.78
2022-11-10T02:59:45.808Z,95587.72
2022-11-10T03:02:32.240Z,95594.03
2022-11-10T03:05:15.516Z,95588.69
2022-11-10T03:08:00.505Z,95590.91
2022-11-10T03:10:44.952Z,95585.56
2022-11-10T03:13:40.299Z,95591.97
2022-11-10T03:16:31.360Z,95591.06
2022-11-10T03:19:14.375Z,95597.81
2022-11-10T03:21:57.541Z,95583.69
2022-11-10T03:24:40.549Z,95594.72
2022-11-10T03:27:24.938Z,95591.53
2022-11-10T03:30:09.211Z,95580.41
2022-11-10T03:32:52.242Z,95592.31
2022-11-10T03:35:35.488Z,95588.13
2022-11-10T03:38:18.583Z,95597.09
2022-11-10T03:41:18.849Z,95594.06
2022-11-10T03:44:04.869Z,95596.81
2022-11-10T03:46:51.437Z,95600.19
2022-11-10T03:49:34.758Z,95601.97
2022-11-10T03:52:17.977Z,95604.38
2022-11-10T03:55:03.557Z,95607.28
2022-11-10T03:57:46.893Z,95603.28
2022-11-10T04:00:31.526Z,95602.78
2022-11-10T04:03:14.740Z,95612.63
2022-11-10T04:06:15.300Z,95603.97
2022-11-10T04:09:01.227Z,95591.00
2022-11-10T04:12:01.830Z,95606.91
2022-11-10T04:15:02.544Z,95604.59
2022-11-10T04:17:51.602Z,95616.75
2022-11-10T04:20:34.598Z,95608.56
2022-11-10T04:23:31.102Z,95606.78
2022-11-10T04:26:32.840Z,95610.34
2022-11-10T04:29:17.540Z,95611.94
2022-11-10T04:32:00.551Z,95616.28
2022-11-10T04:34:44.886Z,95620.19
2022-11-10T04:37:27.877Z,95623.56
2022-11-10T04:40:11.993Z,95626.41
2022-11-10T04:42:55.016Z,95626.34
2022-11-10T04:45:38.011Z,95627.31
2022-11-10T04:48:21.358Z,95619.31
2022-11-10T04:51:06.717Z,95619.50
2022-11-10T04:53:49.818Z,95625.66
2022-11-10T04:56:34.523Z,95626.19
2022-11-10T04:59:17.476Z,95633.56
2022-11-10T05:02:00.562Z,95632.81
2022-11-10T05:04:43.549Z,95631.03
2022-11-10T05:07:27.953Z,95625.94
2022-11-10T05:10:11.307Z,95637.72
2022-11-10T05:12:55.297Z,95633.69
2022-11-10T05:15:41.456Z,95641.09
2022-11-10T05:18:24.523Z,95637.91
2022-11-10T05:21:07.910Z,95642.56
2022-11-10T05:23:52.339Z,95643.84
2022-11-10T05:26:35.486Z,95639.50
2022-11-10T05:29:18.576Z,95638.22
2022-11-10T05:32:01.654Z,95649.59
2022-11-10T05:34:44.714Z,95647.94
2022-11-10T05:37:27.901Z,95651.91
2022-11-10T05:40:13.317Z,95656.72
2022-11-10T05:42:56.376Z,95650.03
2022-11-10T05:45:39.381Z,95645.00
2022-11-10T05:48:22.411Z,95651.31
2022-11-10T05:51:05.589Z,95655.72
2022-11-10T05:53:48.575Z,95658.19
2022-11-10T05:56:33.017Z,95662.56
2022-11-10T05:59:16.015Z,95664.72
2022-11-10T06:01:59.014Z,95663.25
2022-11-10T06:04:42.287Z,95660.22
2022-11-10T06:07:25.306Z,95667.72
2022-11-10T06:10:09.257Z,95669.81
2022-11-10T06:12:54.082Z,95675.06
2022-11-10T06:15:37.390Z,95670.22
2022-11-10T06:18:20.421Z,95673.88
2022-11-10T06:21:03.450Z,95671.19
2022-11-10T06:23:46.494Z,95677.34
2022-11-10T06:26:29.509Z,95675.75
2022-11-10T06:29:13.908Z,95673.25
2022-11-10T06:31:56.902Z,95681.06
2022-11-10T06:34:39.890Z,95689.59
2022-11-10T06:37:22.915Z,95698.78
2022-11-10T06:40:07.091Z,95697.66
2022-11-10T06:42:50.127Z,95696.53
2022-11-10T06:45:34.559Z,95701.19
2022-11-10T06:48:17.599Z,95706.59
2022-11-10T06:51:01.768Z,95714.56
2022-11-10T06:53:44.760Z,95706.72
2022-11-10T06:56:27.740Z,95712.22
2022-11-10T06:59:10.800Z,95712.22
2022-11-10T07:01:55.275Z,95710.13
2022-11-10T07:04:38.338Z,95718.50
2022-11-10T07:07:21.364Z,95703.81
2022-11-10T07:10:07.261Z,95714.19
2022-11-10T07:12:57.685Z,95721.16
2022-11-10T07:15:40.715Z,95723.50
2022-11-10T07:18:25.337Z,95715.31
2022-11-10T07:21:08.363Z,95712.25
2022-11-10T07:26:58.971Z,95714.63
2022-11-10T07:29:42.209Z,95720.00
2022-11-10T07:32:25.414Z,95721.56
2022-11-10T07:35:11.331Z,95704.47
2022-11-10T07:37:54.508Z,95712.41
2022-11-10T07:40:37.957Z,95718.38
2022-11-10T07:43:22.335Z,95721.91
2022-11-10T07:46:08.027Z,95718.50
2022-11-10T07:48:51.236Z,95720.81
2022-11-10T07:51:36.107Z,95718.31
2022-11-10T07:54:19.643Z,95714.88
2022-11-10T07:57:03.038Z,95719.44
2022-11-10T07:59:46.156Z,95715.69
2022-11-10T08:02:29.365Z,95717.84
2022-11-10T08:05:12.463Z,95713.56
2022-11-10T08:08:00.945Z,95716.41
2022-11-10T08:10:44.614Z,95723.94
2022-11-10T08:13:28.041Z,95722.16
2022-11-10T08:16:11.273Z,95723.03
2022-11-10T08:18:54.710Z,95728.13
2022-11-10T08:21:37.887Z,95707.59
2022-11-10T08:24:22.391Z,95719.69
2022-11-10T08:27:05.826Z,95720.81
2022-11-10T08:29:48.950Z,95725.50
2022-11-10T08:32:32.140Z,95720.81
2022-11-10T08:35:15.953Z,95725.38
2022-11-10T08:37:59.279Z,95731.28
2022-11-10T08:40:44.350Z,95730.47
2022-11-10T08:43:28.314Z,95735.88
2022-11-10T08:46:11.501Z,95733.34
2022-11-10T08:48:54.509Z,95729.09
2022-11-10T08:51:39.257Z,95735.38
2022-11-10T08:54:22.557Z,95734.22
2022-11-10T08:57:07.077Z,95740.28
2022-11-10T08:59:50.161Z,95739.38
2022-11-10T09:02:33.437Z,95745.69
2022-11-10T09:05:16.558Z,95735.56
2022-11-10T09:07:59.594Z,95742.97
2022-11-10T09:10:44.806Z,95738.63
2022-11-10T09:13:30.478Z,95739.16
2022-11-10T09:16:14.002Z,95747.00
2022-11-10T09:18:57.174Z,95748.41
2022-11-10T09:21:40.465Z,95740.47
2022-11-10T09:24:28.450Z,95744.16
2022-11-10T09:27:14.181Z,95742.22
2022-11-10T09:29:58.580Z,95740.34
2022-11-10T09:32:41.658Z,95730.22
2022-11-10T09:35:24.952Z,95731.16
2022-11-10T09:38:08.069Z,95725.53
2022-11-10T09:41:02.588Z,95714.59
2022-11-10T09:44:01.884Z,95726.06
2022-11-10T09:46:49.934Z,95710.22
2022-11-10T09:49:37.763Z,95712.00
2022-11-10T09:52:24.929Z,95706.81
2022-11-10T09:55:26.067Z,95705.63
2022-11-10T09:58:12.677Z,95702.44
2022-11-10T10:01:16.594Z,95709.88
2022-11-10T10:04:11.024Z,95709.66
2022-11-10T10:07:10.652Z,95704.81
2022-11-10T10:10:01.646Z,95699.44
2022-11-10T10:12:58.407Z,95701.75
2022-11-10T10:15:46.182Z,95708.25
2022-11-10T10:18:37.318Z,95685.81
2022-11-10T10:21:36.665Z,95700.94
2022-11-10T10:24:22.602Z,95703.88
2022-11-10T10:27:08.299Z,95700.81
2022-11-10T10:29:51.460Z,95686.41
2022-11-10T10:32:34.548Z,95695.81
2022-11-10T10:35:19.228Z,95685.03
2022-11-10T10:38:05.922Z,95687.03
2022-11-10T10:40:51.337Z,95692.63
2022-11-10T10:43:34.403Z,95684.25
2022-11-10T10:46:19.521Z,95693.09
2022-11-10T10:49:32.990Z,95684.00
2022-11-10T10:52:18.016Z,95679.91
2022-11-10T10:55:07.041Z,95678.09
2022-11-10T10:57:59.888Z,95676.06
2022-11-10T11:00:47.016Z,95668.53
2022-11-10T11:03:38.455Z,95668.44
2022-11-10T11:06:25.526Z,95666.66
2022-11-10T11:09:10.819Z,95664.38
2022-11-10T11:12:04.557Z,95662.63
2022-11-10T11:14:48.175Z,95653.47
2022-11-10T11:17:31.231Z,95655.47
2022-11-10T11:20:15.538Z,95658.09
2022-11-10T11:23:04.207Z,95648.53
2022-11-10T11:25:49.423Z,95646.41
2022-11-10T11:28:43.994Z,95645.97
2022-11-10T11:31:42.874Z,95643.66
2022-11-10T11:34:31.888Z,95638.88
2022-11-10T11:37:23.194Z,95639.38
2022-11-10T11:40:23.081Z,95645.69
2022-11-10T11:43:22.549Z,95635.00
2022-11-10T11:46:14.733Z,95635.19
2022-11-10T11:49:16.430Z,95637.19
2022-11-10T11:52:08.671Z,95628.88
2022-11-10T11:55:11.779Z,95630.91
2022-11-10T11:58:06.736Z,95632.34
2022-11-10T12:01:00.255Z,95628.59
2022-11-10T12:04:19.077Z,95638.34
2022-11-10T12:07:15.400Z,95639.63
2022-11-10T12:10:11.481Z,95629.47
2022-11-10T12:13:12.298Z,95629.81
2022-11-10T12:16:00.691Z,95637.13
2022-11-10T12:18:49.957Z,95637.69
2022-11-10T12:21:44.360Z,95637.38
2022-11-10T12:24:41.257Z,95635.28
2022-11-10T12:27:29.849Z,95631.81
2022-11-10T12:30:17.187Z,95630.13
2022-11-10T12:33:05.420Z,95625.66
2022-11-10T12:35:49.690Z,95633.09
2022-11-10T12:38:48.453Z,95628.97
2022-11-10T12:41:37.970Z,95631.66
2022-11-10T12:44:29.392Z,95633.56
2022-11-10T12:47:18.101Z,95631.19
2022-11-10T12:50:18.644Z,95634.69
2022-11-10T12:53:06.984Z,95635.03
2022-11-10T12:55:56.478Z,95636.72
2022-11-10T12:58:39.571Z,95640.13
2022-11-10T13:01:22.839Z,95615.47
2022-11-10T13:04:06.951Z,95635.63
2022-11-10T13:06:51.964Z,95626.25
2022-11-10T13:09:37.571Z,95638.09
2022-11-10T13:12:24.989Z,95639.72
2022-11-10T13:15:41.486Z,95635.38
2022-11-10T13:18:55.335Z,95643.56
2022-11-10T13:22:10.070Z,95643.41
2022-11-10T13:24:53.159Z,95641.16
2022-11-10T13:27:52.654Z,95639.41
2022-11-10T13:30:42.009Z,95641.66
2022-11-10T13:33:36.227Z,95643.91
2022-11-10T13:36:42.435Z,95644.47
2022-11-10T13:39:28.045Z,95649.06
2022-11-10T13:42:20.020Z,95650.00
2022-11-10T13:45:31.042Z,95651.69
2022-11-10T13:48:26.796Z,95655.03
2022-11-10T13:51:22.581Z,95647.53
2022-11-10T13:54:28.581Z,95655.75
2022-11-10T13:57:27.294Z,95653.84
2022-11-10T14:00:27.164Z,95653.94
2022-11-10T14:03:54.635Z,95657.84
2022-11-10T14:06:46.590Z,95655.69
2022-11-10T14:09:35.208Z,95659.09
2022-11-10T14:12:26.840Z,95667.19
2022-11-10T14:15:17.439Z,95661.03
2022-11-10T14:18:01.167Z,95658.06
2022-11-10T14:20:46.540Z,95662.84
2022-11-10T14:23:35.248Z,95664.56
2022-11-10T14:26:26.344Z,95667.19
2022-11-10T14:29:32.953Z,95662.75
2022-11-10T14:32:19.017Z,95657.75
2022-11-10T14:35:02.349Z,95663.94
2022-11-10T14:37:45.370Z,95665.88
2022-11-10T14:40:29.371Z,95665.25
2022-11-10T14:43:28.947Z,95667.16
2022-11-10T14:46:15.775Z,95669.50
2022-11-10T14:49:00.371Z,95670.94
2022-11-10T14:51:43.434Z,95670.53
2022-11-10T14:54:29.402Z,95676.53
2022-11-10T14:57:18.816Z,95669.56
2022-11-10T15:00:08.138Z,95673.34
2022-11-10T15:02:51.387Z,95675.69
2022-11-10T15:05:35.407Z,95680.16
2022-11-10T15:08:19.089Z,95681.59
2022-11-10T15:11:02.172Z,95687.84
2022-11-10T15:13:45.151Z,95688.34
2022-11-10T15:16:30.960Z,95700.22
2022-11-10T15:19:28.516Z,95700.09
2022-11-10T15:22:18.940Z,95701.81
2022-11-10T15:25:08.658Z,95707.09
2022-11-10T15:27:59.514Z,95713.50
2022-11-10T15:30:51.616Z,95708.78
2022-11-10T15:33:38.486Z,95719.03
2022-11-10T15:36:35.984Z,95707.44
2022-11-10T15:39:20.397Z,95724.69
2022-11-10T15:42:14.709Z,95727.06
2022-11-10T15:44:58.929Z,95735.94
2022-11-10T15:47:42.624Z,95735.97
2022-11-10T15:50:28.304Z,95737.56
2022-11-10T15:53:15.567Z,95735.59
2022-11-10T15:55:58.640Z,95735.81
2022-11-10T15:58:42.101Z,95739.22
2022-11-10T16:01:25.407Z,95734.66
2022-11-10T16:04:10.372Z,95737.63
2022-11-10T16:06:55.110Z,95739.69
2022-11-10T16:09:38.235Z,95748.94
2022-11-10T16:12:23.113Z,95750.13
2022-11-10T16:15:14.233Z,95751.72
2022-11-10T16:17:57.394Z,95753.75
2022-11-10T16:20:40.793Z,95753.72
2022-11-10T16:23:26.302Z,95765.72
2022-11-10T16:26:14.468Z,95771.31
2022-11-10T16:28:58.038Z,95765.25
2022-11-10T16:31:41.130Z,95759.22
2022-11-10T16:34:24.204Z,95768.44
2022-11-10T16:37:07.450Z,95771.59
2022-11-10T16:39:52.170Z,95785.97
2022-11-10T16:42:35.282Z,95781.34
2022-11-10T16:45:20.369Z,95782.94
2022-11-10T16:48:08.212Z,95788.91
2022-11-10T16:50:53.493Z,95798.22
2022-11-10T16:53:39.450Z,95794.81
2022-11-10T16:56:24.008Z,95799.66
2022-11-10T16:59:07.049Z,95796.22
2022-11-10T17:01:50.957Z,95796.56
2022-11-10T17:04:34.135Z,95805.97
2022-11-10T17:07:21.141Z,95807.34
2022-11-10T17:10:04.557Z,95811.59
2022-11-10T17:12:49.264Z,95821.22
2022-11-10T17:15:35.426Z,95824.09
2022-11-10T17:18:22.005Z,95813.50
2022-11-10T17:21:07.601Z,95821.28
2022-11-10T17:23:51.335Z,95827.81
2022-11-10T17:26:35.653Z,95830.41
2022-11-10T17:29:22.184Z,95824.59
2022-11-10T17:32:05.556Z,95828.97
2022-11-10T17:34:48.579Z,95823.13
2022-11-10T17:37:32.205Z,95826.53
2022-11-10T17:40:21.217Z,95828.50
2022-11-10T17:43:04.341Z,95830.47
2022-11-10T17:45:48.841Z,95826.88
2022-11-10T17:48:31.930Z,95824.88
2022-11-10T17:51:19.513Z,95817.91
2022-11-10T17:54:05.072Z,95820.50
2022-11-10T17:56:48.194Z,95823.09
2022-11-10T17:59:31.349Z,95822.88
2022-11-10T18:02:16.079Z,95834.47
2022-11-10T18:04:59.307Z,95835.28
2022-11-10T18:07:43.280Z,95842.00
2022-11-10T18:10:26.364Z,95836.41
2022-11-10T18:13:09.987Z,95832.97
2022-11-10T18:15:54.644Z,95843.72
2022-11-10T18:18:39.727Z,95844.72
2022-11-10T18:21:23.131Z,95847.88
2022-11-10T18:24:06.804Z,95856.72
2022-11-10T18:26:49.892Z,95859.78
2022-11-10T18:29:33.204Z,95863.19
2022-11-10T18:32:16.417Z,95870.06
2022-11-10T18:35:02.257Z,95870.59
2022-11-10T18:37:45.307Z,95870.34
2022-11-10T18:40:28.854Z,95872.75
2022-11-10T18:43:12.285Z,95877.94
2022-11-10T18:45:55.358Z,95877.03
2022-11-10T18:48:38.711Z,95884.56
2022-11-10T18:51:23.497Z,95884.69
2022-11-10T18:54:07.494Z,95884.44
2022-11-10T18:56:51.589Z,95885.66
2022-11-10T18:59:34.726Z,95887.03
2022-11-10T19:02:17.918Z,95885.66
2022-11-10T19:05:02.559Z,95892.91
2022-11-10T19:07:47.217Z,95894.13
2022-11-10T19:10:30.284Z,95897.88
2022-11-10T19:13:15.329Z,95897.34
2022-11-10T19:19:18.721Z,95882.09
2022-11-10T19:22:01.915Z,95888.00
2022-11-10T19:25:07.082Z,95889.63
2022-11-10T19:27:55.463Z,95875.25
2022-11-10T19:30:45.156Z,95906.16
2022-11-10T19:33:36.731Z,95890.09
2022-11-10T19:36:23.632Z,95877.03
2022-11-10T19:39:07.931Z,95906.38
2022-11-10T19:41:55.381Z,95913.16
2022-11-10T19:44:40.104Z,95928.16
2022-11-10T19:47:24.328Z,95932.16
2022-11-10T19:50:08.213Z,95927.72
2022-11-10T19:52:52.685Z,95913.44
2022-11-10T19:55:38.987Z,95914.25
2022-11-10T19:58:27.479Z,95928.69
2022-11-10T20:01:11.922Z,95929.66
2022-11-10T20:03:57.227Z,95920.22
2022-11-10T20:06:41.613Z,95941.56
2022-11-10T20:09:25.054Z,95932.38
2022-11-10T20:12:09.263Z,95938.09
2022-11-10T20:14:54.335Z,95939.63
2022-11-10T20:17:38.379Z,95938.44
2022-11-10T20:20:21.797Z,95943.53
2022-11-10T20:23:07.721Z,95947.56
2022-11-10T20:25:53.065Z,95914.13
2022-11-10T20:28:38.250Z,95948.34
2022-11-10T20:31:26.424Z,95909.94
2022-11-10T20:34:09.941Z,95946.38
2022-11-10T20:36:59.389Z,95951.03
2022-11-10T20:39:47.250Z,95951.13
2022-11-10T20:42:30.577Z,95935.13
2022-11-10T20:45:14.469Z,95949.25
2022-11-10T20:48:03.603Z,95957.72
2022-11-10T20:50:46.818Z,95962.09
2022-11-10T20:53:32.253Z,95942.91
2022-11-10T20:56:17.099Z,95957.28
2022-11-10T20:59:00.540Z,95960.38
2022-11-10T21:01:45.118Z,95962.47
2022-11-10T21:04:30.073Z,95972.34
2022-11-10T21:07:13.120Z,95966.28
2022-11-10T21:09:56.192Z,95972.91
2022-11-10T21:12:51.135Z,95980.19
2022-11-10T21:15:34.119Z,95983.88
2022-11-10T21:18:17.425Z,95983.06
2022-11-10T21:21:01.861Z,95985.44
2022-11-10T21:23:44.914Z,95991.09
2022-11-10T21:26:27.868Z,96003.69
2022-11-10T21:29:11.716Z,96002.22
2022-11-10T21:31:54.734Z,96004.91
2022-11-10T21:34:37.730Z,96008.38
2022-11-10T21:37:23.113Z,96009.44
2022-11-10T21:40:07.360Z,96004.00
2022-11-10T21:42:55.357Z,96003.91
2022-11-10T21:45:38.354Z,96009.41
2022-11-10T21:48:21.370Z,96012.78
2022-11-10T21:51:05.605Z,96016.88
2022-11-10T21:53:50.052Z,96015.53
2022-11-10T21:56:33.014Z,96015.88
2022-11-10T21:59:16.070Z,96019.47
2022-11-10T22:01:59.106Z,96011.63
2022-11-10T22:04:42.172Z,96017.50
2022-11-10T22:07:25.538Z,96021.75
2022-11-10T22:10:29.077Z,96022.22
2022-11-10T22:13:34.467Z,96020.38
2022-11-10T22:16:41.099Z,96015.66
2022-11-10T22:19:24.095Z,96025.41
2022-11-10T22:22:07.248Z,96030.94
2022-11-10T22:24:50.246Z,96024.88
2022-11-10T22:27:34.625Z,96024.34
2022-11-10T22:30:17.870Z,96016.38
2022-11-10T22:33:22.320Z,96030.53
2022-11-10T22:36:07.751Z,96040.28
2022-11-10T22:38:50.844Z,96032.56
2022-11-10T22:41:51.139Z,96031.88
2022-11-10T22:44:35.591Z,96036.47
2022-11-10T22:47:18.551Z,96034.06
2022-11-10T22:50:01.491Z,96036.47
2022-11-10T22:52:44.586Z,96041.97
2022-11-10T22:55:27.581Z,96038.81
2022-11-10T22:58:10.520Z,96036.25
2022-11-10T23:00:54.912Z,96039.78
2022-11-10T23:03:39.450Z,96039.16
2022-11-10T23:06:22.449Z,96043.69
2022-11-10T23:09:06.425Z,96035.75
2022-11-10T23:11:49.456Z,96038.19
2022-11-10T23:14:32.503Z,96047.91
2022-11-10T23:17:16.969Z,96054.69
2022-11-10T23:19:59.995Z,96055.72
2022-11-10T23:22:43.086Z,96055.84
2022-11-10T23:25:26.114Z,96063.41
2022-11-10T23:28:09.090Z,96060.88
2022-11-10T23:30:52.203Z,96062.16
2022-11-10T23:33:37.479Z,96069.00
2022-11-10T23:36:22.316Z,96064.47
2022-11-10T23:39:05.287Z,96071.56
2022-11-10T23:41:48.310Z,96080.28
2022-11-10T23:44:31.311Z,96078.66
2022-11-10T23:47:14.338Z,96073.34
2022-11-10T23:49:58.736Z,96085.13
2022-11-10T23:52:41.714Z,96078.38
2022-11-10T23:55:24.712Z,96070.28
2022-11-10T23:58:08.425Z,96073.66
